Time;durP1;ratioP1;P1;durP2;ratioP2;P2;SDS_P1;SDS_P2;PMS_P1;PMS_P2;Temp;Humidity;BMP_temperature;BMP_pressure;BME280_temperature;BME280_humidity;BME280_pressure;Samples;Min_cycle;Max_cycle;Signal;HPM_P1;HPM_P2
2022/02/19 00:01:24;;;;;;;;;;;;;;;;;;2210238;59;1257;-69
2022/02/19 00:03:57;;;;;;;;;;;;;;;;;;2211178;59;1185;-69
2022/02/19 00:06:34;;;;;;;;;;;;;;;;;;2212014;59;1151;-69
2022/02/19 00:09:08;;;;;;;;;;;;;;;;;;2211011;59;1178;-69
2022/02/19 00:11:41;;;;;;;;;;;;;;;;;;2210913;59;1705;-69
2022/02/19 00:14:14;;;;;;;;;;;;;;;;;;2210133;59;1936;-69
2022/02/19 00:16:48;;;;;;;;;;;;;;;;;;2211319;59;2254;-69
2022/02/19 00:19:36;;;;;;;;;;;;;;;;;;2211206;67;1116;-69
2022/02/19 00:22:12;;;;;;;;;;;;;;;;;;2211594;59;1486;-69
2022/02/19 00:24:49;;;;;;;;;;;;;;;;;;2210257;59;1857;-69
2022/02/19 00:27:22;;;;;;;;;;;;;;;;;;2211913;67;1159;-69
2022/02/19 00:29:55;;;;;;;;;;;;;;;;;;2211974;59;1123;-69
2022/02/19 00:32:29;;;;;;;;;;;;;;;;;;2210309;59;1924;-69
2022/02/19 00:35:02;;;;;;;;;;;;;;;;;;2211142;67;1259;-69
2022/02/19 00:37:38;;;;;;;;;;;;;;;;;;2211785;67;1211;-69
2022/02/19 00:40:12;;;;;;;;;;;;;;;;;;2211875;67;1132;-69
2022/02/19 00:42:46;;;;;;;;;;;;;;;;;;2211543;59;1160;-69
2022/02/19 00:45:19;;;;;;;;;;;;;;;;;;2211618;59;1211;-70
2022/02/19 00:48:03;;;;;;;;;;;;;;;;;;2209792;59;1488;-69
2022/02/19 00:50:37;;;;;;;;;;;;;;;;;;2211038;59;1776;-69
2022/02/19 00:53:13;;;;;;;;;;;;;;;;;;2211143;59;1934;-69
2022/02/19 00:55:46;;;;;;;;;;;;;;;;;;2212025;67;1179;-69
2022/02/19 00:58:26;;;;;;;;;;;;;;;;;;2212182;59;1182;-69
2022/02/19 01:00:59;;;;;;;;;;;;;;;;;;2211061;59;1077;-69
2022/02/19 01:03:34;;;;;;;;;;;;;;;;;;2211406;67;1187;-69
2022/02/19 01:06:09;;;;;;;;;;;;;;;;;;2212250;59;1135;-69
2022/02/19 01:08:45;;;;;;;;;;;;;;;;;;2211400;59;1200;-69
2022/02/19 01:11:18;;;;;;;;;;;;;;;;;;2211477;59;1993;-69
2022/02/19 01:13:52;;;;;;;;;;;;;;;;;;2211621;59;1929;-69
2022/02/19 01:16:30;;;;;;;;;;;;;;;;;;2211162;59;1857;-69
2022/02/19 01:19:06;;;;;;;;;;;;;;;;;;2211616;67;1153;-69
2022/02/19 01:21:39;;;;;;;;;;;;;;;;;;2211456;59;1435;-69
2022/02/19 01:24:16;;;;;;;;;;;;;;;;;;2210782;59;1297;-69
2022/02/19 01:26:51;;;;;;;;;;;;;;;;;;2212236;67;1214;-69
2022/02/19 01:29:24;;;;;;;;;;;;;;;;;;2211337;59;1269;-69
2022/02/19 01:32:00;;;;;;;;;;;;;;;;;;2210282;59;1960;-69
2022/02/19 01:34:33;;;;;;;;;;;;;;;;;;2211357;67;1921;-69
2022/02/19 01:37:07;;;;;;;;;;;;;;;;;;2212186;67;1175;-69
2022/02/19 01:39:44;;;;;;;;;;;;;;;;;;2211413;67;1176;-69
2022/02/19 01:42:19;;;;;;;;;;;;;;;;;;2211245;67;1318;-69
2022/02/19 01:44:54;;;;;;;;;;;;;;;;;;2210150;59;1145;-69
2022/02/19 01:47:32;;;;;;;;;;;;;;;;;;2210501;59;1406;-69
2022/02/19 01:50:06;;;;;;;;;;;;;;;;;;2210965;67;1396;-69
2022/02/19 01:52:41;;;;;;;;;;;;;;;;;;2210471;59;1930;-69
2022/02/19 01:55:21;;;;;;;;;;;;;;;;;;2211206;67;1105;-69
2022/02/19 01:57:55;;;;;;;;;;;;;;;;;;2212258;67;1194;-69
2022/02/19 02:00:28;;;;;;;;;;;;;;;;;;2210586;59;1315;-69
2022/02/19 02:03:02;;;;;;;;;;;;;;;;;;2211383;67;1151;-69
2022/02/19 02:05:36;;;;;;;;;;;;;;;;;;2212158;67;1170;-69
2022/02/19 02:08:10;;;;;;;;;;;;;;;;;;2211739;67;1270;-69
2022/02/19 02:10:47;;;;;;;;;;;;;;;;;;2211792;67;1278;-69
2022/02/19 02:13:20;;;;;;;;;;;;;;;;;;2211438;59;1987;-69
2022/02/19 02:15:54;;;;;;;;;;;;;;;;;;2210409;59;1924;-69
2022/02/19 02:18:28;;;;;;;;;;;;;;;;;;2212042;59;1627;-69
2022/02/19 02:21:01;;;;;;;;;;;;;;;;;;2212008;59;1344;-69
2022/02/19 02:23:37;;;;;;;;;;;;;;;;;;2210870;59;1562;-69
2022/02/19 02:26:14;;;;;;;;;;;;;;;;;;2211336;59;1227;-69
2022/02/19 02:28:47;;;;;;;;;;;;;;;;;;2211773;59;1184;-69
2022/02/19 02:31:20;;;;;;;;;;;;;;;;;;2210602;59;1838;-69
2022/02/19 02:33:55;;;;;;;;;;;;;;;;;;2210658;67;2002;-69
2022/02/19 02:36:28;;;;;;;;;;;;;;;;;;2211766;59;1171;-69
2022/02/19 02:39:04;;;;;;;;;;;;;;;;;;2210870;59;1098;-69
2022/02/19 02:41:37;;;;;;;;;;;;;;;;;;2210528;59;1229;-69
2022/02/19 02:44:13;;;;;;;;;;;;;;;;;;2211002;59;1817;-69
2022/02/19 02:46:47;;;;;;;;;;;;;;;;;;2210880;59;1701;-69
2022/02/19 02:49:20;;;;;;;;;;;;;;;;;;2209494;59;1420;-69
2022/02/19 02:51:53;;;;;;;;;;;;;;;;;;2210315;59;2866;-69
2022/02/19 02:54:30;;;;;;;;;;;;;;;;;;2210843;59;2068;-69
2022/02/19 02:57:03;;;;;;;;;;;;;;;;;;2212084;59;1109;-69
2022/02/19 02:59:37;;;;;;;;;;;;;;;;;;2209854;59;1104;-69
2022/02/19 03:02:10;;;;;;;;;;;;;;;;;;2211894;59;1148;-69
2022/02/19 03:04:43;;;;;;;;;;;;;;;;;;2210926;59;1267;-69
2022/02/19 03:07:19;;;;;;;;;;;;;;;;;;2211113;67;1420;-70
2022/02/19 03:09:55;;;;;;;;;;;;;;;;;;2210679;59;1172;-69
2022/02/19 03:12:28;;;;;;;;;;;;;;;;;;2209588;59;1692;-70
2022/02/19 03:15:05;;;;;;;;;;;;;;;;;;2210904;67;2182;-69
2022/02/19 03:17:39;;;;;;;;;;;;;;;;;;2210556;59;1321;-69
2022/02/19 03:20:12;;;;;;;;;;;;;;;;;;2211703;59;1209;-70
2022/02/19 03:22:46;;;;;;;;;;;;;;;;;;2209932;59;1557;-70
2022/02/19 03:25:22;;;;;;;;;;;;;;;;;;2212205;59;1138;-70
2022/02/19 03:27:57;;;;;;;;;;;;;;;;;;2211035;59;2102;-69
2022/02/19 03:30:30;;;;;;;;;;;;;;;;;;2209812;60;1210;-70
2022/02/19 03:33:03;;;;;;;;;;;;;;;;;;2209693;59;1854;-69
2022/02/19 03:35:36;;;;;;;;;;;;;;;;;;2209694;67;1976;-69
2022/02/19 03:38:10;;;;;;;;;;;;;;;;;;2211573;67;1123;-69
2022/02/19 03:40:46;;;;;;;;;;;;;;;;;;2210899;59;1135;-69
2022/02/19 03:43:19;;;;;;;;;;;;;;;;;;2211325;67;1218;-69
2022/02/19 03:45:53;;;;;;;;;;;;;;;;;;2212350;67;1085;-70
2022/02/19 03:48:27;;;;;;;;;;;;;;;;;;2209159;59;1459;-69
2022/02/19 03:51:00;;;;;;;;;;;;;;;;;;2211363;59;1024;-69
2022/02/19 03:53:33;;;;;;;;;;;;;;;;;;2209344;59;1935;-69
2022/02/19 03:56:10;;;;;;;;;;;;;;;;;;2210573;67;1124;-70
2022/02/19 03:58:43;;;;;;;;;;;;;;;;;;2212670;67;1064;-70
2022/02/19 04:01:16;;;;;;;;;;;;;;;;;;2209956;59;1266;-69
2022/02/19 04:03:49;;;;;;;;;;;;;;;;;;2211962;67;1120;-69
2022/02/19 04:06:23;;;;;;;;;;;;;;;;;;2211432;59;1133;-70
2022/02/19 04:08:59;;;;;;;;;;;;;;;;;;2211396;67;1142;-69
2022/02/19 04:11:36;;;;;;;;;;;;;;;;;;2211939;59;1756;-70
2022/02/19 04:14:10;;;;;;;;;;;;;;;;;;2210841;67;1937;-70
2022/02/19 04:16:43;;;;;;;;;;;;;;;;;;2212548;59;2549;-69
2022/02/19 04:19:17;;;;;;;;;;;;;;;;;;2211908;67;1176;-70
2022/02/19 04:21:50;;;;;;;;;;;;;;;;;;2212465;59;1383;-69
2022/02/19 04:24:23;;;;;;;;;;;;;;;;;;2211316;59;1222;-69
2022/02/19 04:26:59;;;;;;;;;;;;;;;;;;2212460;67;1115;-70
2022/02/19 04:29:32;;;;;;;;;;;;;;;;;;2212122;59;1910;-70
2022/02/19 04:32:06;;;;;;;;;;;;;;;;;;2212851;53;3769;-74
2022/02/19 04:34:40;;;;;;;;;;;;;;;;;;2195556;59;1940;-74
2022/02/19 04:37:13;;;;;;;;;;;;;;;;;;2200902;59;1258;-73
2022/02/19 04:39:49;;;;;;;;;;;;;;;;;;2201844;67;1049;-73
2022/02/19 04:42:25;;;;;;;;;;;;;;;;;;2199621;59;1605;-73
2022/02/19 04:44:59;;;;;;;;;;;;;;;;;;2200642;67;1104;-74
2022/02/19 04:47:34;;;;;;;;;;;;;;;;;;2200388;59;1494;-73
2022/02/19 04:50:08;;;;;;;;;;;;;;;;;;2198728;59;2099;-74
2022/02/19 04:52:43;;;;;;;;;;;;;;;;;;2199006;59;1892;-73
2022/02/19 04:55:16;;;;;;;;;;;;;;;;;;2200038;67;1935;-74
2022/02/19 04:57:52;;;;;;;;;;;;;;;;;;2201984;67;1119;-74
2022/02/19 05:00:26;;;;;;;;;;;;;;;;;;2200355;59;1281;-73
2022/02/19 05:02:59;;;;;;;;;;;;;;;;;;2199470;67;1206;-74
2022/02/19 05:05:35;;;;;;;;;;;;;;;;;;2201540;59;1648;-73
2022/02/19 05:08:09;;;;;;;;;;;;;;;;;;2200603;59;1307;-74
2022/02/19 05:10:42;;;;;;;;;;;;;;;;;;2201820;67;1117;-74
2022/02/19 05:13:21;;;;;;;;;;;;;;;;;;2200044;59;1690;-73
2022/02/19 05:15:54;;;;;;;;;;;;;;;;;;2200857;59;2129;-73
2022/02/19 05:18:28;;;;;;;;;;;;;;;;;;2201975;59;1681;-73
2022/02/19 05:21:01;;;;;;;;;;;;;;;;;;2201300;59;1339;-73
2022/02/19 05:23:35;;;;;;;;;;;;;;;;;;2200461;59;1683;-74
2022/02/19 05:26:08;;;;;;;;;;;;;;;;;;2199738;59;1275;-73
2022/02/19 05:28:49;;;;;;;;;;;;;;;;;;2200166;59;1078;-73
2022/02/19 05:31:42;;;;;;;;;;;;;;;;;;;;;
2022/02/19 05:34:16;;;;;;;;;;;;;;;;;;2199653;59;1920;-74
2022/02/19 05:36:49;;;;;;;;;;;;;;;;;;2200067;59;1546;-74
2022/02/19 05:39:22;;;;;;;;;;;;;;;;;;2196429;59;1353;-74
2022/02/19 05:41:56;;;;;;;;;;;;;;;;;;2200717;67;1231;-73
2022/02/19 05:44:34;;;;;;;;;;;;;;;;;;2200615;67;1161;-74
2022/02/19 05:47:10;;;;;;;;;;;;;;;;;;2199640;59;1643;-73
2022/02/19 05:49:44;;;;;;;;;;;;;;;;;;2196503;64;1412;-74
2022/02/19 05:52:17;;;;;;;;;;;;;;;;;;2200610;59;1890;-74
2022/02/19 05:54:53;;;;;;;;;;;;;;;;;;2199974;67;1979;-73
2022/02/19 05:57:29;;;;;;;;;;;;;;;;;;2200714;59;1695;-73
2022/02/19 06:00:05;;;;;;;;;;;;;;;;;;2200053;59;1688;-73
2022/02/19 06:02:39;;;;;;;;;;;;;;;;;;2199284;67;1214;-73
2022/02/19 06:05:12;;;;;;;;;;;;;;;;;;2199852;59;1731;-73
2022/02/19 06:07:45;;;;;;;;;;;;;;;;;;2201031;59;1163;-73
2022/02/19 06:10:19;;;;;;;;;;;;;;;;;;2200255;59;1852;-73
2022/02/19 06:12:55;;;;;;;;;;;;;;;;;;2198463;59;1822;-73
2022/02/19 06:15:31;;;;;;;;;;;;;;;;;;2199379;59;1960;-73
2022/02/19 06:18:04;;;;;;;;;;;;;;;;;;2200926;59;1401;-73
2022/02/19 06:20:37;;;;;;;;;;;;;;;;;;2200166;67;1454;-73
2022/02/19 06:23:11;;;;;;;;;;;;;;;;;;2201058;67;1304;-73
2022/02/19 06:25:50;;;;;;;;;;;;;;;;;;2199594;67;1146;-73
2022/02/19 06:28:23;;;;;;;;;;;;;;;;;;2200088;59;1625;-73
2022/02/19 06:31:00;;;;;;;;;;;;;;;;;;2199642;59;1553;-73
2022/02/19 06:33:36;;;;;;;;;;;;;;;;;;2198503;59;1756;-73
2022/02/19 06:36:09;;;;;;;;;;;;;;;;;;2200587;67;1929;-73
2022/02/19 06:38:43;;;;;;;;;;;;;;;;;;2198404;59;1738;-73
2022/02/19 06:41:16;;;;;;;;;;;;;;;;;;2198968;59;1608;-73
2022/02/19 06:43:49;;;;;;;;;;;;;;;;;;2198657;59;1571;-73
2022/02/19 06:46:25;;;;;;;;;;;;;;;;;;2200503;59;1610;-73
2022/02/19 06:48:59;;;;;;;;;;;;;;;;;;2199767;59;2434;-73
2022/02/19 06:51:34;;;;;;;;;;;;;;;;;;2199997;67;1296;-73
2022/02/19 06:54:08;;;;;;;;;;;;;;;;;;2197900;59;1890;-73
2022/02/19 06:56:41;;;;;;;;;;;;;;;;;;2199947;67;1989;-73
2022/02/19 06:59:15;;;;;;;;;;;;;;;;;;2198441;59;1630;-73
2022/02/19 07:01:54;;;;;;;;;;;;;;;;;;2199379;59;1613;-73
2022/02/19 07:04:27;;;;;;;;;;;;;;;;;;2195186;59;4817;-74
2022/02/19 07:07:01;;;;;;;;;;;;;;;;;;2200073;59;1878;-73
2022/02/19 07:09:34;;;;;;;;;;;;;;;;;;2200172;67;1146;-74
2022/02/19 07:12:08;;;;;;;;;;;;;;;;;;2200719;59;1701;-73
2022/02/19 07:14:42;;;;;;;;;;;;;;;;;;2199832;59;1983;-73
2022/02/19 07:17:18;;;;;;;;;;;;;;;;;;2199774;59;1488;-73
2022/02/19 07:19:51;;;;;;;;;;;;;;;;;;2199997;59;1891;-73
2022/02/19 07:22:24;;;;;;;;;;;;;;;;;;2200896;59;1183;-74
2022/02/19 07:24:57;;;;;;;;;;;;;;;;;;2200701;59;1133;-73
2022/02/19 07:27:38;;;;;;;;;;;;;;;;;;2200936;67;1115;-73
2022/02/19 07:30:12;;;;;;;;;;;;;;;;;;2200629;59;1258;-73
2022/02/19 07:32:51;;;;;;;;;;;;;;;;;;2195891;59;1709;-73
2022/02/19 07:35:25;;;;;;;;;;;;;;;;;;2200293;67;1933;-73
2022/02/19 07:38:01;;;;;;;;;;;;;;;;;;2197499;67;1365;-73
2022/02/19 07:40:34;;;;;;;;;;;;;;;;;;2200363;67;1172;-73
2022/02/19 07:43:08;;;;;;;;;;;;;;;;;;2201072;59;1209;-73
2022/02/19 07:45:41;;;;;;;;;;;;;;;;;;2198970;59;1695;-73
2022/02/19 07:48:17;;;;;;;;;;;;;;;;;;2199465;59;1504;-73
2022/02/19 07:59:18;;;;;;;;;;;;;;;;;;2200164;59;1394;-73
2022/02/19 08:01:51;;;;;;;;;;;;;;;;;;2201020;59;1202;-73
2022/02/19 08:04:28;;;;;;;;;;;;;;;;;;2201637;67;1093;-73
2022/02/19 08:07:01;;;;;;;;;;;;;;;;;;2201211;59;1214;-74
2022/02/19 08:09:34;;;;;;;;;;;;;;;;;;2200855;67;4308;-73
2022/02/19 08:12:08;;;;;;;;;;;;;;;;;;2200102;59;1862;-73
2022/02/19 08:14:41;;;;;;;;;;;;;;;;;;2199712;59;2207;-73
2022/02/19 08:17:15;;;;;;;;;;;;;;;;;;2200439;59;1989;-74
2022/02/19 08:19:51;;;;;;;;;;;;;;;;;;2201152;67;1236;-73
2022/02/19 08:22:24;;;;;;;;;;;;;;;;;;2198581;59;1972;-74
2022/02/19 08:24:57;;;;;;;;;;;;;;;;;;2201209;67;1115;-73
2022/02/19 08:27:34;;;;;;;;;;;;;;;;;;2199235;59;1787;-73
2022/02/19 08:30:08;;;;;;;;;;;;;;;;;;2199513;59;1669;-73
2022/02/19 08:32:42;;;;;;;;;;;;;;;;;;2199326;59;1812;-73
2022/02/19 08:35:18;;;;;;;;;;;;;;;;;;2199027;59;1985;-73
2022/02/19 08:37:51;;;;;;;;;;;;;;;;;;2201225;59;1241;-74
2022/02/19 08:40:25;;;;;;;;;;;;;;;;;;2199499;59;1815;-73
2022/02/19 08:42:58;;;;;;;;;;;;;;;;;;2202073;67;1302;-74
2022/02/19 08:45:31;;;;;;;;;;;;;;;;;;2196449;59;1768;-74
2022/02/19 08:48:05;;;;;;;;;;;;;;;;;;2199208;59;1530;-74
2022/02/19 08:50:43;;;;;;;;;;;;;;;;;;2199877;67;1156;-74
2022/02/19 08:53:21;;;;;;;;;;;;;;;;;;2199122;59;1665;-74
2022/02/19 08:55:57;;;;;;;;;;;;;;;;;;2198087;59;2548;-74
2022/02/19 08:58:30;;;;;;;;;;;;;;;;;;2199399;59;1597;-74
2022/02/19 09:01:03;;;;;;;;;;;;;;;;;;2199557;59;1389;-74
2022/02/19 09:03:37;;;;;;;;;;;;;;;;;;2198663;59;1644;-74
2022/02/19 09:06:13;;;;;;;;;;;;;;;;;;2200345;67;1178;-74
2022/02/19 09:08:46;;;;;;;;;;;;;;;;;;2200927;59;1642;-74
2022/02/19 09:11:20;;;;;;;;;;;;;;;;;;2202026;67;1195;-74
2022/02/19 09:13:54;;;;;;;;;;;;;;;;;;2201211;59;2060;-74
2022/02/19 09:16:29;;;;;;;;;;;;;;;;;;2201428;59;1987;-74
2022/02/19 09:19:03;;;;;;;;;;;;;;;;;;2200993;67;1228;-74
2022/02/19 09:21:42;;;;;;;;;;;;;;;;;;2198673;59;1580;-74
2022/02/19 09:24:16;;;;;;;;;;;;;;;;;;2197355;59;1826;-74
2022/02/19 09:26:49;;;;;;;;;;;;;;;;;;2199464;59;1046;-74
2022/02/19 09:29:22;;;;;;;;;;;;;;;;;;2200264;59;1272;-74
2022/02/19 09:31:55;;;;;;;;;;;;;;;;;;2200333;67;1215;-73
2022/02/19 09:34:28;;;;;;;;;;;;;;;;;;2198395;59;1636;-74
2022/02/19 09:37:04;;;;;;;;;;;;;;;;;;2199400;67;1936;-74
2022/02/19 09:39:37;;;;;;;;;;;;;;;;;;2196885;67;1876;-74
2022/02/19 09:42:13;;;;;;;;;;;;;;;;;;2201267;67;1226;-74
2022/02/19 09:44:46;;;;;;;;;;;;;;;;;;2200851;59;1235;-74
2022/02/19 09:47:25;;;;;;;;;;;;;;;;;;2200150;59;1791;-74
2022/02/19 09:49:59;;;;;;;;;;;;;;;;;;2200361;59;1928;-73
2022/02/19 09:52:35;;;;;;;;;;;;;;;;;;2195904;59;1898;-74
2022/02/19 09:55:09;;;;;;;;;;;;;;;;;;2199533;59;2542;-74
2022/02/19 09:57:42;;;;;;;;;;;;;;;;;;2198440;59;2911;-74
2022/02/19 10:00:16;;;;;;;;;;;;;;;;;;2195116;67;1882;-74
2022/02/19 10:02:52;;;;;;;;;;;;;;;;;;2201181;67;1179;-74
2022/02/19 10:05:26;;;;;;;;;;;;;;;;;;2202147;67;1241;-74
2022/02/19 10:08:06;;;;;;;;;;;;;;;;;;2200646;59;1275;-74
2022/02/19 10:10:40;;;;;;;;;;;;;;;;;;2201617;67;1087;-74
2022/02/19 10:13:28;;;;;;;;;;;;;;;;;;2199283;59;1745;-75
2022/02/19 10:16:02;;;;;;;;;;;;;;;;;;2198924;59;2553;-74
2022/02/19 10:18:37;;;;;;;;;;;;;;;;;;2196301;67;1228;-73
2022/02/19 10:21:14;;;;;;;;;;;;;;;;;;2199501;59;1265;-73
2022/02/19 10:23:51;;;;;;;;;;;;;;;;;;2199847;59;1604;-73
2022/02/19 10:26:25;;;;;;;;;;;;;;;;;;2198542;59;1858;-74
2022/02/19 10:28:59;;;;;;;;;;;;;;;;;;2194057;59;1835;-73
2022/02/19 10:31:33;;;;;;;;;;;;;;;;;;2197427;59;1844;-73
2022/02/19 10:34:07;;;;;;;;;;;;;;;;;;2206683;53;2151;-70
2022/02/19 10:36:44;;;;;;;;;;;;;;;;;;2212913;58;1972;-70
2022/02/19 10:39:27;;;;;;;;;;;;;;;;;;2210692;59;1899;-70
2022/02/19 10:42:04;;;;;;;;;;;;;;;;;;2209776;59;1856;-70
2022/02/19 10:44:38;;;;;;;;;;;;;;;;;;2211725;67;1846;-70
2022/02/19 10:47:21;;;;;;;;;;;;;;;;;;2209591;59;1753;-69
2022/02/19 10:50:05;;;;;;;;;;;;;;;;;;2211213;59;1928;-70
2022/02/19 10:52:39;;;;;;;;;;;;;;;;;;2212348;59;1518;-70
2022/02/19 10:55:17;;;;;;;;;;;;;;;;;;2209601;59;1841;-70
2022/02/19 10:57:51;;;;;;;;;;;;;;;;;;2210695;59;3010;-70
2022/02/19 11:00:25;;;;;;;;;;;;;;;;;;2212223;59;1355;-70
2022/02/19 11:02:58;;;;;;;;;;;;;;;;;;2211740;59;1361;-70
2022/02/19 11:05:32;;;;;;;;;;;;;;;;;;2212388;59;1111;-70
2022/02/19 11:08:06;;;;;;;;;;;;;;;;;;2212791;59;1357;-70
2022/02/19 11:10:42;;;;;;;;;;;;;;;;;;2212612;59;1285;-69
2022/02/19 11:13:15;;;;;;;;;;;;;;;;;;2212069;59;1613;-70
2022/02/19 11:15:49;;;;;;;;;;;;;;;;;;2212436;59;2281;-70
2022/02/19 11:18:24;;;;;;;;;;;;;;;;;;2211820;59;1473;-70
2022/02/19 11:20:58;;;;;;;;;;;;;;;;;;2212481;59;1228;-69
2022/02/19 11:23:32;;;;;;;;;;;;;;;;;;2213776;59;1339;-70
2022/02/19 11:26:10;;;;;;;;;;;;;;;;;;2212357;59;1415;-70
2022/02/19 11:28:44;;;;;;;;;;;;;;;;;;2212159;59;1425;-70
2022/02/19 11:31:18;;;;;;;;;;;;;;;;;;2213150;59;1457;-69
2022/02/19 11:33:56;;;;;;;;;;;;;;;;;;2212320;59;1691;-70
2022/02/19 11:36:30;;;;;;;;;;;;;;;;;;2212273;67;2031;-70
2022/02/19 11:39:05;;;;;;;;;;;;;;;;;;2214099;67;1265;-70
2022/02/19 11:41:43;;;;;;;;;;;;;;;;;;2213506;59;1360;-70
2022/02/19 11:44:29;;;;;;;;;;;;;;;;;;2213456;59;1268;-70
2022/02/19 11:47:22;;;;;;;;;;;;;;;;;;2213138;67;1037;-70
2022/02/19 11:50:11;;;;;;;;;;;;;;;;;;2213270;59;1634;-70
2022/02/19 11:52:44;;;;;;;;;;;;;;;;;;2212122;59;1535;-70
2022/02/19 11:55:31;;;;;;;;;;;;;;;;;;2212732;67;1115;-70
2022/02/19 11:58:08;;;;;;;;;;;;;;;;;;2212071;59;2548;-70
2022/02/19 12:00:45;;;;;;;;;;;;;;;;;;2211639;59;2346;-70
2022/02/19 12:03:21;;;;;;;;;;;;;;;;;;2217040;66;1180;-70
2022/02/19 12:06:13;;;;;;;;;;;;;;;;;;2213755;67;1191;-70
2022/02/19 12:09:04;;;;;;;;;;;;;;;;;;2211737;59;1582;-70
2022/02/19 12:11:56;;;;;;;;;;;;;;;;;;2213223;59;1270;-70
2022/02/19 12:14:53;;;;;;;;;;;;;;;;;;2213124;59;1884;-70
2022/02/19 12:17:46;;;;;;;;;;;;;;;;;;2213872;59;1993;-70
2022/02/19 12:20:26;;;;;;;;;;;;;;;;;;2213256;59;1473;-70
2022/02/19 12:23:01;;;;;;;;;;;;;;;;;;2212627;67;1336;-70
2022/02/19 12:25:53;;;;;;;;;;;;;;;;;;2211802;59;1460;-70
2022/02/19 12:28:26;;;;;;;;;;;;;;;;;;2212833;59;1224;-70
2022/02/19 12:31:20;;;;;;;;;;;;;;;;;;2212912;59;1491;-70
2022/02/19 12:33:56;;;;;;;;;;;;;;;;;;2211467;59;1815;-70
2022/02/19 12:36:29;;;;;;;;;;;;;;;;;;2213590;59;1935;-70
2022/02/19 12:39:03;;;;;;;;;;;;;;;;;;2213153;59;1164;-70
2022/02/19 12:41:38;;;;;;;;;;;;;;;;;;2212279;59;1658;-70
2022/02/19 12:44:13;;;;;;;;;;;;;;;;;;2211763;59;1230;-70
2022/02/19 12:46:47;;;;;;;;;;;;;;;;;;2211449;59;1327;-70
2022/02/19 12:49:23;;;;;;;;;;;;;;;;;;2211984;59;1547;-71
2022/02/19 12:51:57;;;;;;;;;;;;;;;;;;2213343;59;1301;-70
2022/02/19 12:54:34;;;;;;;;;;;;;;;;;;2211623;59;1732;-70
2022/02/19 12:57:08;;;;;;;;;;;;;;;;;;2212490;59;1922;-70
2022/02/19 12:59:42;;;;;;;;;;;;;;;;;;2211127;59;2625;-70
2022/02/19 13:02:19;;;;;;;;;;;;;;;;;;2212601;59;1952;-70
2022/02/19 13:04:59;;;;;;;;;;;;;;;;;;2211852;59;1608;-70
2022/02/19 13:07:32;;;;;;;;;;;;;;;;;;2212361;59;2045;-70
2022/02/19 13:10:07;;;;;;;;;;;;;;;;;;2211998;59;1709;-70
2022/02/19 13:12:42;;;;;;;;;;;;;;;;;;2211805;59;1763;-70
2022/02/19 13:15:16;;;;;;;;;;;;;;;;;;2212321;59;2358;-70
2022/02/19 13:17:55;;;;;;;;;;;;;;;;;;2211498;59;1989;-70
2022/02/19 13:20:31;;;;;;;;;;;;;;;;;;2212251;67;1264;-70
2022/02/19 13:23:04;;;;;;;;;;;;;;;;;;2212344;67;1328;-70
2022/02/19 13:25:38;;;;;;;;;;;;;;;;;;2212566;59;1211;-70
2022/02/19 13:28:11;;;;;;;;;;;;;;;;;;2213100;67;1144;-70
2022/02/19 13:30:45;;;;;;;;;;;;;;;;;;2212650;59;1502;-70
2022/02/19 13:33:18;;;;;;;;;;;;;;;;;;2212338;59;1618;-70
2022/02/19 13:35:54;;;;;;;;;;;;;;;;;;2212305;67;1149;-70
2022/02/19 13:38:28;;;;;;;;;;;;;;;;;;2212022;59;1940;-70
2022/02/19 13:41:01;;;;;;;;;;;;;;;;;;2212247;59;1174;-70
2022/02/19 13:43:35;;;;;;;;;;;;;;;;;;2213238;59;1215;-70
2022/02/19 13:46:15;;;;;;;;;;;;;;;;;;2213020;59;1483;-70
2022/02/19 13:48:52;;;;;;;;;;;;;;;;;;2213003;59;1491;-70
2022/02/19 13:51:36;;;;;;;;;;;;;;;;;;2212584;59;1363;-70
2022/02/19 13:54:16;;;;;;;;;;;;;;;;;;2212425;59;1856;-70
2022/02/19 13:56:50;;;;;;;;;;;;;;;;;;2212496;67;1936;-70
2022/02/19 13:59:23;;;;;;;;;;;;;;;;;;2211675;59;2517;-70
2022/02/19 14:01:57;;;;;;;;;;;;;;;;;;2211573;59;2251;-70
2022/02/19 14:04:34;;;;;;;;;;;;;;;;;;2211426;59;1871;-70
2022/02/19 14:07:14;;;;;;;;;;;;;;;;;;2211961;59;1229;-70
2022/02/19 14:10:03;;;;;;;;;;;;;;;;;;2211793;59;1183;-70
2022/02/19 14:12:37;;;;;;;;;;;;;;;;;;2210938;59;1800;-70
2022/02/19 14:15:12;;;;;;;;;;;;;;;;;;2211113;59;1502;-70
2022/02/19 14:17:46;;;;;;;;;;;;;;;;;;2213186;59;1932;-70
2022/02/19 14:20:21;;;;;;;;;;;;;;;;;;2212184;59;1274;-70
2022/02/19 14:22:57;;;;;;;;;;;;;;;;;;2210650;59;1548;-70
2022/02/19 14:25:32;;;;;;;;;;;;;;;;;;2211021;59;1346;-70
2022/02/19 14:28:07;;;;;;;;;;;;;;;;;;2211852;67;1082;-70
2022/02/19 14:30:42;;;;;;;;;;;;;;;;;;2212767;59;1136;-69
2022/02/19 14:33:15;;;;;;;;;;;;;;;;;;2211283;59;1622;-70
2022/02/19 14:35:49;;;;;;;;;;;;;;;;;;2211771;59;1629;-70
2022/02/19 14:38:27;;;;;;;;;;;;;;;;;;2211959;59;1987;-70
2022/02/19 14:41:01;;;;;;;;;;;;;;;;;;2211951;59;1223;-70
2022/02/19 14:43:38;;;;;;;;;;;;;;;;;;2211767;67;1305;-70
2022/02/19 14:46:11;;;;;;;;;;;;;;;;;;2212825;67;1485;-70
2022/02/19 14:48:45;;;;;;;;;;;;;;;;;;2212053;59;1429;-70
2022/02/19 14:51:18;;;;;;;;;;;;;;;;;;2212997;59;1325;-70
2022/02/19 14:53:54;;;;;;;;;;;;;;;;;;2211918;59;1724;-70
2022/02/19 14:56:28;;;;;;;;;;;;;;;;;;2212724;67;1293;-70
2022/02/19 14:59:03;;;;;;;;;;;;;;;;;;2212797;67;1939;-70
2022/02/19 15:01:36;;;;;;;;;;;;;;;;;;2210719;59;3018;-70
2022/02/19 15:04:10;;;;;;;;;;;;;;;;;;2211991;59;1197;-69
2022/02/19 15:06:46;;;;;;;;;;;;;;;;;;2212457;67;1126;-70
2022/02/19 15:09:22;;;;;;;;;;;;;;;;;;2213164;59;1444;-70
2022/02/19 15:11:56;;;;;;;;;;;;;;;;;;2211647;59;2906;-70
2022/02/19 15:14:29;;;;;;;;;;;;;;;;;;2212031;59;1878;-70
2022/02/19 15:17:03;;;;;;;;;;;;;;;;;;2212372;59;1368;-70
2022/02/19 15:19:36;;;;;;;;;;;;;;;;;;2212312;59;1940;-70
2022/02/19 15:22:09;;;;;;;;;;;;;;;;;;2213059;59;1289;-71
2022/02/19 15:24:46;;;;;;;;;;;;;;;;;;2212117;59;1796;-70
2022/02/19 15:27:20;;;;;;;;;;;;;;;;;;2212153;67;1173;-70
2022/02/19 15:29:53;;;;;;;;;;;;;;;;;;2211557;59;1432;-70
2022/02/19 15:32:27;;;;;;;;;;;;;;;;;;2212388;59;1255;-70
2022/02/19 15:35:00;;;;;;;;;;;;;;;;;;2211640;59;2230;-70
2022/02/19 15:37:34;;;;;;;;;;;;;;;;;;2211936;67;1935;-70
2022/02/19 15:40:11;;;;;;;;;;;;;;;;;;2212344;67;1149;-70
2022/02/19 15:42:44;;;;;;;;;;;;;;;;;;2212384;67;1188;-69
2022/02/19 15:45:24;;;;;;;;;;;;;;;;;;2212318;59;1129;-70
2022/02/19 15:48:07;;;;;;;;;;;;;;;;;;2212964;59;1517;-70
2022/02/19 15:50:41;;;;;;;;;;;;;;;;;;2212083;59;1147;-70
2022/02/19 15:53:14;;;;;;;;;;;;;;;;;;2212248;59;1535;-70
2022/02/19 15:55:50;;;;;;;;;;;;;;;;;;2211132;67;1095;-70
2022/02/19 15:58:28;;;;;;;;;;;;;;;;;;2211712;59;1982;-70
2022/02/19 16:01:02;;;;;;;;;;;;;;;;;;2211274;59;2536;-70
2022/02/19 16:03:38;;;;;;;;;;;;;;;;;;2209955;59;2334;-69
2022/02/19 16:06:30;;;;;;;;;;;;;;;;;;2211906;67;1071;-70
2022/02/19 16:09:06;;;;;;;;;;;;;;;;;;2213042;67;1177;-70
2022/02/19 16:11:44;;;;;;;;;;;;;;;;;;2211945;67;1092;-69
2022/02/19 16:14:17;;;;;;;;;;;;;;;;;;2211290;59;1924;-70
2022/02/19 16:16:52;;;;;;;;;;;;;;;;;;2212233;59;1670;-70
2022/02/19 16:19:26;;;;;;;;;;;;;;;;;;2212426;59;1990;-70
2022/02/19 16:22:15;;;;;;;;;;;;;;;;;;2211108;67;1421;-70
2022/02/19 16:24:48;;;;;;;;;;;;;;;;;;2212619;67;1187;-70
2022/02/19 16:27:24;;;;;;;;;;;;;;;;;;2212929;59;1271;-70
2022/02/19 16:30:00;;;;;;;;;;;;;;;;;;2212464;59;1139;-69
2022/02/19 16:32:33;;;;;;;;;;;;;;;;;;2214195;59;1253;-70
2022/02/19 16:35:07;;;;;;;;;;;;;;;;;;2205824;53;3498;-68
2022/02/19 16:37:41;;;;;;;;;;;;;;;;;;2207440;59;1246;-69
2022/02/19 16:40:14;;;;;;;;;;;;;;;;;;2206788;59;1159;-69
2022/02/19 16:42:51;;;;;;;;;;;;;;;;;;2205847;67;1264;-69
2022/02/19 16:45:24;;;;;;;;;;;;;;;;;;2203957;59;1745;-69
2022/02/19 16:47:57;;;;;;;;;;;;;;;;;;2201830;67;1825;-68
2022/02/19 16:50:30;;;;;;;;;;;;;;;;;;2203398;59;1856;-69
2022/02/19 16:53:03;;;;;;;;;;;;;;;;;;2204584;59;1608;-69
2022/02/19 16:55:36;;;;;;;;;;;;;;;;;;2206016;59;2235;-69
2022/02/19 16:58:12;;;;;;;;;;;;;;;;;;2202598;59;2281;-69
2022/02/19 17:00:46;;;;;;;;;;;;;;;;;;2201428;59;1840;-69
2022/02/19 17:03:19;;;;;;;;;;;;;;;;;;2204128;59;2690;-69
2022/02/19 17:05:52;;;;;;;;;;;;;;;;;;2204549;59;2587;-69
2022/02/19 17:08:30;;;;;;;;;;;;;;;;;;2203596;59;1565;-68
2022/02/19 17:11:03;;;;;;;;;;;;;;;;;;2203827;59;1509;-69
2022/02/19 17:13:39;;;;;;;;;;;;;;;;;;2205000;59;1740;-69
2022/02/19 17:16:13;;;;;;;;;;;;;;;;;;2202413;59;1790;-68
2022/02/19 17:18:46;;;;;;;;;;;;;;;;;;2202755;59;1928;-69
2022/02/19 17:21:19;;;;;;;;;;;;;;;;;;2202965;59;2926;-68
2022/02/19 17:23:52;;;;;;;;;;;;;;;;;;2204223;59;1636;-69
2022/02/19 17:26:26;;;;;;;;;;;;;;;;;;2206525;59;1804;-68
2022/02/19 17:29:02;;;;;;;;;;;;;;;;;;2204304;59;1899;-68
2022/02/19 17:31:35;;;;;;;;;;;;;;;;;;2206243;59;1236;-69
2022/02/19 17:34:08;;;;;;;;;;;;;;;;;;2205879;59;1827;-69
2022/02/19 17:36:41;;;;;;;;;;;;;;;;;;2205933;59;1231;-68
2022/02/19 17:39:14;;;;;;;;;;;;;;;;;;2203375;59;1933;-69
2022/02/19 17:41:47;;;;;;;;;;;;;;;;;;2205392;67;1073;-69
2022/02/19 17:44:23;;;;;;;;;;;;;;;;;;2206251;67;1205;-69
2022/02/19 17:46:57;;;;;;;;;;;;;;;;;;2205719;59;1404;-69
2022/02/19 17:49:30;;;;;;;;;;;;;;;;;;2202623;59;2810;-69
2022/02/19 17:52:03;;;;;;;;;;;;;;;;;;2206461;59;1073;-69
2022/02/19 17:54:36;;;;;;;;;;;;;;;;;;2204403;59;2004;-68
2022/02/19 17:57:09;;;;;;;;;;;;;;;;;;2205921;67;1811;-69
2022/02/19 17:59:46;;;;;;;;;;;;;;;;;;2205396;59;1936;-69
2022/02/19 18:02:19;;;;;;;;;;;;;;;;;;2206543;59;1517;-69
2022/02/19 18:04:52;;;;;;;;;;;;;;;;;;2203432;59;2912;-69
2022/02/19 18:07:25;;;;;;;;;;;;;;;;;;2203223;67;2710;-69